createdAt,value
2019-06-20T00:00:46.902Z,20.43
2019-06-20T00:03:17.224Z,20.43
2019-06-20T00:05:46.690Z,21.60
2019-06-20T00:08:16.196Z,21.65
2019-06-20T00:10:45.645Z,22.10
2019-06-20T00:13:15.080Z,22.15
2019-06-20T00:15:44.528Z,22.58
2019-06-20T00:18:13.969Z,22.32
2019-06-20T00:20:44.700Z,23.25
2019-06-20T00:23:14.166Z,23.47
2019-06-20T00:25:43.594Z,23.10
2019-06-20T00:28:13.037Z,25.40
2019-06-20T00:30:44.673Z,24.52
2019-06-20T00:33:14.093Z,24.37
2019-06-20T00:35:45.622Z,27.25
2019-06-20T00:38:15.978Z,25.90
2019-06-20T00:40:45.519Z,26.73
2019-06-20T00:43:17.770Z,29.42
2019-06-20T00:45:45.945Z,29.55
2019-06-20T00:48:16.371Z,29.63
2019-06-20T00:50:45.828Z,30.27
2019-06-20T00:53:15.202Z,30.95
2019-06-20T00:55:46.681Z,31.73
2019-06-20T00:58:18.029Z,33.15
2019-06-20T01:00:47.468Z,35.08
2019-06-20T01:03:17.856Z,34.98
2019-06-20T01:05:47.239Z,35.10
2019-06-20T01:08:16.681Z,36.55
2019-06-20T01:10:46.145Z,37.73
2019-06-20T01:13:32.600Z,37.42
2019-06-20T01:15:49.274Z,36.68
2019-06-20T01:18:18.736Z,37.33
2019-06-20T01:20:48.185Z,38.45
2019-06-20T01:23:18.618Z,38.58
2019-06-20T01:25:48.235Z,40.17
2019-06-20T01:28:17.834Z,39.08
2019-06-20T01:30:47.860Z,41.05
2019-06-20T01:33:17.354Z,39.63
2019-06-20T01:35:47.384Z,38.42
2019-06-20T01:38:16.860Z,39.88
2019-06-20T01:40:46.289Z,41.13
2019-06-20T01:43:15.745Z,39.13
2019-06-20T01:45:45.197Z,40.60
2019-06-20T01:48:14.807Z,40.85
2019-06-20T01:50:45.406Z,41.68
2019-06-20T01:53:16.028Z,42.85
2019-06-20T01:55:47.493Z,42.75
2019-06-20T01:58:16.930Z,43.75
2019-06-20T02:00:50.166Z,43.40
2019-06-20T02:03:21.036Z,43.85
2019-06-20T02:05:50.728Z,44.58
2019-06-20T02:08:20.533Z,45.60
2019-06-20T02:10:49.884Z,45.17
2019-06-20T02:13:19.345Z,45.03
2019-06-20T02:15:48.833Z,45.12
2019-06-20T02:18:19.073Z,43.38
2019-06-20T02:20:51.927Z,45.12
2019-06-20T02:23:22.621Z,46.90
2019-06-20T02:25:52.139Z,47.45
2019-06-20T02:28:22.912Z,46.68
2019-06-20T02:30:52.515Z,46.77
2019-06-20T02:33:23.847Z,46.20
2019-06-20T02:35:53.303Z,45.80
2019-06-20T02:38:22.705Z,47.95
2019-06-20T02:40:52.251Z,48.10
2019-06-20T02:43:23.128Z,46.55
2019-06-20T02:45:56.283Z,46.42
2019-06-20T02:48:26.621Z,47.45
2019-06-20T02:50:56.729Z,47.65
2019-06-20T02:53:27.643Z,45.60
2019-06-20T02:55:57.078Z,45.05
2019-06-20T02:58:26.540Z,46.55
2019-06-20T03:00:58.385Z,42.73
2019-06-20T03:03:29.296Z,43.77
2019-06-20T03:05:59.131Z,42.03
2019-06-20T03:08:29.570Z,39.83
2019-06-20T03:10:59.021Z,40.35
2019-06-20T03:13:28.529Z,42.25
2019-06-20T03:15:58.074Z,40.33
2019-06-20T03:18:29.248Z,38.28
2019-06-20T03:20:58.835Z,40.10
2019-06-20T03:23:30.285Z,37.33
2019-06-20T03:25:59.672Z,39.13
2019-06-20T03:28:29.141Z,40.55
2019-06-20T03:30:58.576Z,41.05
2019-06-20T03:33:28.035Z,38.23
2019-06-20T03:35:57.616Z,37.65
2019-06-20T03:38:27.069Z,38.88
2019-06-20T03:40:58.878Z,37.78
2019-06-20T03:43:28.379Z,36.60
2019-06-20T03:45:57.812Z,36.42
2019-06-20T03:48:27.280Z,36.42
2019-06-20T03:50:58.622Z,36.17
2019-06-20T03:53:29.043Z,36.42
2019-06-20T03:55:59.404Z,35.73
2019-06-20T03:58:29.144Z,34.55
2019-06-20T04:00:58.658Z,36.70
2019-06-20T04:03:29.292Z,39.03
2019-06-20T04:05:58.756Z,36.03
2019-06-20T04:08:28.150Z,36.28
2019-06-20T04:10:57.592Z,34.98
2019-06-20T04:13:27.049Z,38.92
2019-06-20T04:15:57.425Z,39.13
2019-06-20T04:18:27.940Z,40.00
2019-06-20T04:20:57.394Z,39.00
2019-06-20T04:23:26.816Z,39.70
2019-06-20T04:25:56.579Z,39.50
2019-06-20T04:28:27.622Z,40.90
2019-06-20T04:30:58.348Z,39.27
2019-06-20T04:33:31.613Z,40.25
2019-06-20T04:36:01.211Z,37.90
2019-06-20T04:38:32.593Z,37.50
2019-06-20T04:41:02.091Z,36.83
2019-06-20T04:43:34.505Z,37.38
2019-06-20T04:46:08.701Z,36.53
2019-06-20T04:48:38.131Z,35.73
2019-06-20T04:51:08.635Z,34.63
2019-06-20T04:53:39.014Z,36.53
2019-06-20T04:56:11.011Z,36.60
2019-06-20T04:58:40.506Z,35.85
2019-06-20T05:01:14.421Z,35.88
2019-06-20T05:03:44.048Z,35.63
2019-06-20T05:06:14.471Z,33.00
2019-06-20T05:08:44.003Z,30.35
2019-06-20T05:11:13.458Z,30.30
2019-06-20T05:13:42.934Z,31.75
2019-06-20T05:16:13.389Z,30.45
2019-06-20T05:18:47.062Z,30.37
2019-06-20T05:21:21.609Z,27.73
2019-06-20T05:23:50.990Z,29.00
2019-06-20T05:26:25.870Z,28.07
2019-06-20T05:28:59.785Z,27.15
2019-06-20T05:31:31.191Z,27.13
2019-06-20T05:34:04.764Z,27.70
2019-06-20T05:36:37.500Z,26.75
2019-06-20T05:39:07.571Z,26.95
2019-06-20T05:41:37.192Z,25.65
2019-06-20T05:44:09.927Z,27.52
2019-06-20T05:46:40.864Z,26.65
2019-06-20T05:49:11.200Z,25.57
2019-06-20T05:51:40.641Z,23.77
2019-06-20T05:54:11.014Z,24.72
2019-06-20T05:56:41.459Z,25.35
2019-06-20T05:59:12.516Z,26.42
2019-06-20T06:01:44.337Z,27.98
2019-06-20T06:04:15.371Z,27.77
2019-06-20T06:06:44.809Z,28.65
2019-06-20T06:09:15.526Z,28.80
2019-06-20T06:11:45.000Z,29.07
2019-06-20T06:14:14.461Z,28.65
2019-06-20T06:16:45.748Z,26.15
2019-06-20T06:19:15.255Z,23.75
2019-06-20T06:21:45.675Z,26.33
2019-06-20T06:24:16.128Z,25.30
2019-06-20T06:26:45.575Z,24.32
2019-06-20T06:29:15.050Z,25.17
2019-06-20T06:31:46.584Z,24.12
2019-06-20T06:34:16.037Z,24.65
2019-06-20T06:36:46.548Z,22.62
2019-06-20T06:39:16.039Z,24.35
2019-06-20T06:41:45.505Z,23.15
2019-06-20T06:44:15.901Z,22.00
2019-06-20T06:46:52.990Z,21.50
2019-06-20T06:49:16.550Z,20.90
2019-06-20T06:51:46.102Z,18.25
2019-06-20T06:54:17.174Z,16.50
2019-06-20T06:56:46.679Z,17.82
2019-06-20T06:59:17.111Z,17.48
2019-06-20T07:01:46.582Z,16.80
2019-06-20T07:04:16.041Z,17.32
2019-06-20T07:06:46.783Z,16.10
2019-06-20T07:09:16.316Z,14.55
2019-06-20T07:11:45.793Z,14.78
2019-06-20T07:14:15.356Z,13.32
2019-06-20T07:16:59.438Z,12.28
2019-06-20T07:19:18.947Z,11.90
2019-06-20T07:21:50.194Z,9.90
2019-06-20T07:24:21.203Z,10.38
2019-06-20T07:26:50.632Z,9.70
2019-06-20T07:29:20.073Z,9.38
2019-06-20T07:31:49.855Z,9.08
2019-06-20T07:34:20.330Z,8.88
2019-06-20T07:36:49.806Z,9.55
2019-06-20T07:39:20.204Z,9.20
2019-06-20T07:41:49.709Z,9.05
2019-06-20T07:44:21.108Z,8.70
2019-06-20T07:46:50.566Z,8.85
2019-06-20T07:49:26.247Z,9.38
2019-06-20T07:51:51.957Z,9.98
2019-06-20T07:54:21.503Z,8.95
2019-06-20T07:56:51.911Z,8.58
2019-06-20T07:59:21.587Z,8.33
2019-06-20T08:01:51.107Z,7.92
2019-06-20T08:04:21.699Z,7.83
2019-06-20T08:06:52.776Z,7.05
2019-06-20T08:09:22.894Z,7.70
2019-06-20T08:11:55.017Z,7.65
2019-06-20T08:14:26.146Z,8.05
2019-06-20T08:16:55.890Z,7.40
2019-06-20T08:19:25.282Z,7.60
2019-06-20T08:21:56.791Z,8.18
2019-06-20T08:24:27.237Z,7.50
2019-06-20T08:26:58.742Z,8.78
2019-06-20T08:29:29.650Z,8.55
2019-06-20T08:32:00.742Z,8.80
2019-06-20T08:34:30.708Z,8.35
2019-06-20T08:37:00.640Z,7.92
2019-06-20T08:39:31.235Z,7.83
2019-06-20T08:42:04.335Z,8.98
2019-06-20T08:44:34.066Z,8.88
2019-06-20T08:47:03.886Z,9.08
2019-06-20T08:49:33.635Z,9.50
2019-06-20T08:52:03.520Z,8.78
2019-06-20T08:54:33.926Z,7.87
2019-06-20T08:57:04.161Z,7.97
2019-06-20T08:59:34.974Z,7.42
2019-06-20T09:04:35.557Z,7.37
2019-06-20T09:09:34.665Z,6.60
2019-06-20T09:12:05.128Z,8.18
2019-06-20T09:14:34.740Z,5.78
2019-06-20T09:17:04.359Z,5.30
2019-06-20T09:19:33.791Z,5.37
2019-06-20T09:22:05.036Z,5.85
2019-06-20T09:24:34.545Z,5.55
2019-06-20T09:27:04.288Z,4.92
2019-06-20T09:29:41.584Z,4.80
2019-06-20T09:32:05.018Z,4.25
2019-06-20T09:34:36.159Z,3.92
2019-06-20T09:37:05.615Z,3.50
2019-06-20T09:39:36.333Z,3.58
2019-06-20T09:42:05.828Z,3.95
2019-06-20T09:44:35.190Z,3.90
2019-06-20T09:47:04.989Z,3.60
2019-06-20T09:49:34.427Z,3.98
2019-06-20T09:52:05.801Z,3.20
2019-06-20T09:54:35.212Z,4.00
2019-06-20T09:57:05.748Z,4.42
2019-06-20T09:59:35.194Z,4.25
2019-06-20T10:02:04.768Z,3.90
2019-06-20T10:04:34.264Z,5.12
2019-06-20T10:07:03.778Z,5.08
2019-06-20T10:09:33.241Z,4.87
2019-06-20T10:12:02.661Z,4.67
2019-06-20T10:14:33.150Z,5.22
2019-06-20T10:17:06.258Z,4.72
2019-06-20T10:19:36.254Z,4.97
2019-06-20T10:22:05.800Z,5.17
2019-06-20T10:24:36.072Z,5.20
2019-06-20T10:27:06.263Z,5.10
2019-06-20T10:29:35.634Z,4.90
2019-06-20T10:32:05.135Z,5.17
2019-06-20T10:34:34.517Z,5.10
2019-06-20T10:37:04.042Z,5.00
2019-06-20T10:39:34.657Z,4.80
2019-06-20T10:42:04.142Z,4.72
2019-06-20T10:44:33.590Z,5.33
2019-06-20T10:47:03.458Z,5.20
2019-06-20T10:49:32.934Z,5.12
2019-06-20T10:52:03.297Z,4.40
2019-06-20T10:54:32.734Z,5.17
2019-06-20T10:57:03.206Z,4.10
2019-06-20T10:59:32.665Z,3.60
2019-06-20T11:02:06.465Z,4.78
2019-06-20T11:04:41.111Z,4.15
2019-06-20T11:07:18.003Z,3.85
2019-06-20T11:09:50.124Z,4.45
2019-06-20T11:12:22.208Z,4.28
2019-06-20T11:14:51.609Z,4.45
2019-06-20T11:17:21.879Z,4.45
2019-06-20T11:19:51.369Z,4.30
2019-06-20T11:22:22.245Z,4.05
2019-06-20T11:24:53.586Z,3.12
2019-06-20T11:27:25.029Z,3.00
2019-06-20T11:29:56.243Z,3.00
2019-06-20T11:32:31.247Z,3.20
2019-06-20T11:35:01.913Z,3.08
2019-06-20T11:37:32.554Z,3.00
2019-06-20T11:40:15.715Z,3.00
2019-06-20T11:42:48.941Z,2.95
2019-06-20T11:45:20.082Z,2.87
2019-06-20T11:47:49.802Z,3.17
2019-06-20T11:50:21.051Z,3.17
2019-06-20T11:52:51.074Z,2.60
2019-06-20T11:55:24.276Z,2.75
2019-06-20T11:57:53.859Z,2.50
2019-06-20T12:00:24.681Z,2.65
2019-06-20T12:02:55.190Z,2.90
2019-06-20T12:05:28.987Z,3.37
2019-06-20T12:08:00.705Z,2.92
2019-06-20T12:10:30.485Z,3.05
2019-06-20T12:13:05.699Z,3.60
2019-06-20T12:15:35.129Z,3.05
2019-06-20T12:18:08.937Z,3.60
2019-06-20T12:20:41.038Z,3.47
2019-06-20T12:23:10.591Z,3.37
2019-06-20T12:25:42.707Z,3.70
2019-06-20T12:28:14.404Z,3.37
2019-06-20T12:30:57.705Z,3.60
2019-06-20T12:33:42.503Z,3.33
2019-06-20T12:36:20.652Z,3.47
2019-06-20T12:39:05.110Z,3.62
2019-06-20T12:41:47.526Z,3.62
2019-06-20T12:44:18.998Z,4.12
2019-06-20T12:46:53.478Z,3.65
2019-06-20T12:49:25.829Z,3.58
2019-06-20T12:51:58.762Z,3.83
2019-06-20T12:54:31.012Z,3.77
2019-06-20T12:57:01.054Z,3.72
2019-06-20T12:59:30.472Z,4.35
2019-06-20T13:02:01.514Z,3.80
2019-06-20T13:04:31.541Z,4.05
2019-06-20T13:07:01.023Z,3.87
2019-06-20T13:09:32.094Z,3.25
2019-06-20T13:12:03.334Z,3.02
2019-06-20T13:14:32.829Z,3.52
2019-06-20T13:17:06.870Z,3.40
2019-06-20T13:19:38.603Z,2.98
2019-06-20T13:22:10.189Z,2.30
2019-06-20T13:24:41.051Z,2.87
2019-06-20T13:27:14.178Z,2.45
2019-06-20T13:29:45.278Z,2.40
2019-06-20T13:32:16.029Z,2.60
2019-06-20T13:34:46.931Z,2.58
2019-06-20T13:37:18.649Z,2.00
2019-06-20T13:39:50.161Z,2.02
2019-06-20T13:42:19.642Z,1.98
2019-06-20T13:44:50.702Z,2.10
2019-06-20T13:47:21.224Z,1.75
2019-06-20T13:49:50.983Z,2.40
2019-06-20T13:52:23.086Z,1.98
2019-06-20T13:54:53.787Z,2.10
2019-06-20T13:57:25.241Z,1.80
2019-06-20T13:59:56.826Z,1.90
2019-06-20T14:02:26.226Z,1.90
2019-06-20T14:05:10.006Z,1.70
2019-06-20T14:07:43.481Z,2.08
2019-06-20T14:10:10.706Z,2.62
2019-06-20T14:12:41.858Z,2.52
2019-06-20T14:15:13.555Z,2.10
2019-06-20T14:17:44.922Z,1.65
2019-06-20T14:20:17.164Z,1.87
2019-06-20T14:22:50.394Z,1.65
2019-06-20T14:28:11.610Z,2.27
2019-06-20T14:30:44.637Z,2.10
2019-06-20T14:33:34.454Z,2.65
2019-06-20T14:36:06.974Z,3.00
2019-06-20T14:38:36.571Z,2.95
2019-06-20T14:41:05.989Z,2.65
2019-06-20T14:43:35.474Z,2.50
2019-06-20T14:46:07.487Z,2.60
2019-06-20T14:48:36.949Z,2.55
2019-06-20T14:51:06.461Z,3.15
2019-06-20T14:53:38.217Z,2.77
2019-06-20T14:56:07.818Z,2.40
2019-06-20T14:58:40.089Z,2.50
2019-06-20T15:01:09.560Z,2.35
2019-06-20T15:03:40.636Z,2.05
2019-06-20T15:06:12.040Z,2.52
2019-06-20T15:08:43.991Z,2.33
2019-06-20T15:11:14.487Z,2.30
2019-06-20T15:13:44.450Z,2.27
2019-06-20T15:16:15.173Z,2.08
2019-06-20T15:18:47.951Z,2.42
2019-06-20T15:21:17.763Z,2.20
2019-06-20T15:23:49.569Z,2.40
2019-06-20T15:26:20.664Z,2.20
2019-06-20T15:28:51.806Z,2.12
2019-06-20T15:31:24.220Z,2.75
2019-06-20T15:33:55.042Z,2.30
2019-06-20T15:36:26.262Z,2.58
2019-06-20T15:38:57.343Z,2.10
2019-06-20T15:41:29.284Z,2.20
2019-06-20T15:43:58.781Z,1.90
2019-06-20T15:46:30.584Z,1.90
2019-06-20T15:49:15.448Z,1.60
2019-06-20T15:51:33.164Z,2.15
2019-06-20T15:54:03.617Z,3.22
2019-06-20T15:56:34.046Z,2.05
2019-06-20T15:59:03.551Z,1.67
2019-06-20T16:01:32.988Z,2.37
2019-06-20T16:04:02.502Z,2.22
2019-06-20T16:06:32.887Z,2.22
2019-06-20T16:09:04.630Z,1.75
2019-06-20T16:11:36.268Z,1.82
2019-06-20T16:14:05.800Z,2.00
2019-06-20T16:16:35.262Z,1.75
2019-06-20T16:19:11.927Z,1.75
2019-06-20T16:21:41.401Z,1.47
2019-06-20T16:24:12.719Z,2.02
2019-06-20T16:26:42.561Z,1.67
2019-06-20T16:29:12.105Z,2.10
2019-06-20T16:31:42.500Z,1.77
2019-06-20T16:34:11.916Z,1.80
2019-06-20T16:36:41.420Z,1.82
2019-06-20T16:39:10.960Z,1.60
2019-06-20T16:41:43.938Z,1.32
2019-06-20T16:44:13.391Z,1.80
2019-06-20T16:46:42.900Z,1.75
2019-06-20T16:49:12.347Z,1.65
2019-06-20T16:51:42.147Z,1.60
2019-06-20T16:54:12.566Z,2.00
2019-06-20T16:56:42.998Z,1.52
2019-06-20T16:59:14.332Z,1.50
2019-06-20T17:01:46.591Z,1.60
2019-06-20T17:04:21.433Z,1.50
2019-06-20T17:06:54.802Z,2.17
2019-06-20T17:09:25.797Z,1.55
2019-06-20T17:11:56.152Z,1.32
2019-06-20T17:14:26.810Z,1.37
2019-06-20T17:16:57.174Z,1.30
2019-06-20T17:19:27.654Z,1.25
2019-06-20T17:21:57.561Z,1.32
2019-06-20T17:24:28.166Z,1.25
2019-06-20T17:26:58.554Z,0.93
2019-06-20T17:29:28.927Z,1.30
2019-06-20T17:31:59.328Z,1.30
2019-06-20T17:34:28.788Z,1.35
2019-06-20T17:36:59.219Z,1.60
2019-06-20T17:39:28.593Z,1.90
2019-06-20T17:41:58.089Z,2.95
2019-06-20T17:44:29.431Z,2.20
2019-06-20T17:46:58.877Z,2.95
2019-06-20T17:49:29.276Z,1.92
2019-06-20T17:51:58.750Z,1.77
2019-06-20T17:54:29.485Z,1.65
2019-06-20T17:57:03.238Z,1.75
2019-06-20T18:02:03.040Z,1.42
2019-06-20T18:04:35.181Z,1.72
2019-06-20T18:07:08.559Z,1.42
2019-06-20T18:09:39.642Z,1.92
2019-06-20T18:14:41.849Z,1.77
2019-06-20T18:17:11.311Z,1.52
2019-06-20T18:19:42.941Z,1.40
2019-06-20T18:22:12.566Z,1.32
2019-06-20T18:24:43.415Z,1.70
2019-06-20T18:27:18.818Z,1.50
2019-06-20T18:29:54.032Z,1.60
2019-06-20T18:32:26.024Z,1.75
2019-06-20T18:35:13.747Z,1.70
2019-06-20T18:37:44.531Z,1.60
2019-06-20T18:40:16.752Z,1.47
2019-06-20T18:42:48.780Z,1.60
2019-06-20T18:45:21.227Z,1.70
2019-06-20T18:47:51.723Z,1.70
2019-06-20T18:50:25.505Z,1.90
2019-06-20T18:52:57.746Z,1.52
2019-06-20T18:55:29.626Z,1.30
2019-06-20T18:58:02.120Z,1.83
2019-06-20T19:00:35.410Z,1.90
2019-06-20T19:03:12.439Z,1.72
2019-06-20T19:05:43.356Z,1.82
2019-06-20T19:08:18.772Z,1.70
2019-06-20T19:10:49.168Z,1.92
2019-06-20T19:13:24.666Z,1.50
2019-06-20T19:15:59.785Z,1.57
2019-06-20T19:18:29.362Z,3.25
2019-06-20T19:20:59.037Z,2.87
2019-06-20T19:23:29.749Z,1.77
2019-06-20T19:26:00.944Z,1.67
2019-06-20T19:28:32.703Z,1.82
2019-06-20T19:31:02.422Z,1.90
2019-06-20T19:33:34.442Z,1.47
2019-06-20T19:36:06.068Z,1.40
2019-06-20T19:38:35.522Z,1.82
2019-06-20T19:41:05.185Z,1.70
2019-06-20T19:43:35.625Z,1.70
2019-06-20T19:46:09.469Z,1.87
2019-06-20T19:48:40.787Z,3.70
2019-06-20T19:51:15.204Z,1.45
2019-06-20T19:53:45.976Z,2.25
2019-06-20T19:56:15.673Z,2.02
2019-06-20T19:58:46.846Z,2.00
2019-06-20T20:01:18.638Z,1.82
2019-06-20T20:03:51.158Z,1.95
2019-06-20T20:06:24.719Z,1.62
2019-06-20T20:08:57.358Z,3.08
2019-06-20T20:11:30.750Z,2.40
2019-06-20T20:14:06.563Z,1.52
2019-06-20T20:16:39.608Z,1.60
2019-06-20T20:19:16.135Z,1.60
2019-06-20T20:21:45.602Z,1.50
2019-06-20T20:24:15.136Z,1.60
2019-06-20T20:26:47.579Z,1.65
2019-06-20T20:29:18.039Z,1.40
2019-06-20T20:31:48.994Z,11.55
2019-06-20T20:34:18.458Z,1.85
2019-06-20T20:36:49.521Z,1.80
2019-06-20T20:39:19.040Z,3.05
2019-06-20T20:41:50.083Z,2.15
2019-06-20T20:44:19.702Z,2.00
2019-06-20T20:46:49.160Z,1.40
2019-06-20T20:49:18.605Z,2.00
2019-06-20T20:51:55.007Z,1.92
2019-06-20T20:54:25.355Z,2.30
2019-06-20T20:56:55.817Z,1.42
2019-06-20T20:59:25.326Z,1.60
2019-06-20T21:01:54.775Z,1.70
2019-06-20T21:04:24.229Z,2.22
2019-06-20T21:06:53.742Z,1.80
2019-06-20T21:09:23.183Z,1.95
2019-06-20T21:11:53.598Z,3.27
2019-06-20T21:14:23.013Z,2.30
2019-06-20T21:16:53.925Z,2.15
2019-06-20T21:19:23.449Z,1.87
2019-06-20T21:21:52.941Z,1.72
2019-06-20T21:24:22.373Z,1.60
2019-06-20T21:26:52.729Z,1.90
2019-06-20T21:29:22.093Z,2.02
2019-06-20T21:31:51.521Z,1.92
2019-06-20T21:34:20.948Z,1.70
2019-06-20T21:36:50.388Z,3.22
2019-06-20T21:39:21.370Z,2.58
2019-06-20T21:41:50.842Z,2.30
2019-06-20T21:44:20.273Z,1.67
2019-06-20T21:46:49.756Z,1.60
2019-06-20T21:49:19.128Z,1.60
2019-06-20T21:51:48.559Z,1.85
2019-06-20T21:54:18.909Z,1.80
2019-06-20T21:56:49.261Z,2.22
2019-06-20T21:59:18.739Z,2.58
2019-06-20T22:01:49.063Z,2.08
2019-06-20T22:04:19.490Z,1.92
2019-06-20T22:06:48.910Z,2.30
2019-06-20T22:09:18.354Z,2.20
2019-06-20T22:11:48.024Z,1.70
2019-06-20T22:14:19.687Z,2.00
2019-06-20T22:16:49.126Z,1.70
2019-06-20T22:19:19.462Z,1.60
2019-06-20T22:21:49.822Z,2.00
2019-06-20T22:24:19.327Z,1.92
2019-06-20T22:26:49.209Z,1.87
2019-06-20T22:29:18.656Z,1.62
2019-06-20T22:31:49.952Z,1.67
2019-06-20T22:34:19.468Z,1.37
2019-06-20T22:36:49.877Z,1.30
2019-06-20T22:39:19.326Z,1.67
2019-06-20T22:41:50.272Z,1.50
2019-06-20T22:44:19.657Z,1.32
2019-06-20T22:46:49.041Z,1.45
2019-06-20T22:49:18.466Z,1.35
2019-06-20T22:51:47.901Z,1.50
2019-06-20T22:54:18.639Z,1.72
2019-06-20T22:56:48.122Z,1.52
2019-06-20T22:59:17.703Z,1.72
2019-06-20T23:01:47.229Z,2.00
2019-06-20T23:04:16.685Z,1.70
2019-06-20T23:06:55.883Z,1.60
2019-06-20T23:09:17.260Z,1.62
2019-06-20T23:11:46.717Z,1.50
2019-06-20T23:14:16.194Z,1.72
2019-06-20T23:16:48.690Z,1.90
2019-06-20T23:19:21.300Z,1.80
2019-06-20T23:21:50.732Z,1.77
2019-06-20T23:24:20.684Z,2.08
2019-06-20T23:26:50.141Z,1.90
2019-06-20T23:29:22.512Z,1.70
2019-06-20T23:31:54.089Z,1.50
2019-06-20T23:34:23.673Z,1.60
2019-06-20T23:36:53.282Z,2.00
2019-06-20T23:39:23.650Z,1.65
2019-06-20T23:41:54.992Z,1.90
2019-06-20T23:44:25.393Z,2.72
2019-06-20T23:46:54.870Z,3.58
2019-06-20T23:49:24.327Z,3.90
2019-06-20T23:51:56.342Z,4.40
2019-06-20T23:54:25.805Z,5.00
2019-06-20T23:56:55.212Z,5.53
2019-06-20T23:59:24.664Z,6.42
